Normandy, Tennessee
Current Conditions -  °F | °C
As of 12:35 AM on Sunday 28 Dec 2014 (Local Time) from KTHA Reporting Station
Overcast Overcast  
Wind Chill: 11°   Ceiling: 800
Heat Index: 11°   Visibility: 8mi
Dew Point: 10°   Wind: 0mph
Humidity: 94%   Direction: NA
Pressure: 30.06"   Gusts: NA
Location:  35.45°N, 86.26°W
Report Text: KTHA 280635Z AUTO 00000KT 8SM OVC008 11/10 A3006 RMK
Loading
Personal Weather Stations






























Interactive Weather Map New forecast layout! Learn more

10-Day Weather Forecast

Advertisements
Track Severe Weather on mobile